sensor_id;sensor_type;location;lat;lon;timestamp;temperature;humidity
71206;SHT31;58935;54.498;18.544;2023-04-01T00:01:05;4.16;92.08
71206;SHT31;58935;54.498;18.544;2023-04-01T00:03:32;4.17;92.10
71206;SHT31;58935;54.498;18.544;2023-04-01T00:05:58;4.15;92.10
71206;SHT31;58935;54.498;18.544;2023-04-01T00:08:25;4.13;92.03
71206;SHT31;58935;54.498;18.544;2023-04-01T00:10:51;4.11;92.08
71206;SHT31;58935;54.498;18.544;2023-04-01T00:13:17;4.07;92.01
71206;SHT31;58935;54.498;18.544;2023-04-01T00:15:44;4.01;92.03
71206;SHT31;58935;54.498;18.544;2023-04-01T00:18:10;3.94;92.18
71206;SHT31;58935;54.498;18.544;2023-04-01T00:20:37;3.90;92.26
71206;SHT31;58935;54.498;18.544;2023-04-01T00:23:03;3.89;92.39
71206;SHT31;58935;54.498;18.544;2023-04-01T00:25:29;3.88;92.40
71206;SHT31;58935;54.498;18.544;2023-04-01T00:27:55;3.83;92.42
71206;SHT31;58935;54.498;18.544;2023-04-01T00:30:20;3.79;92.50
71206;SHT31;58935;54.498;18.544;2023-04-01T00:32:46;3.77;92.51
71206;SHT31;58935;54.498;18.544;2023-04-01T00:35:11;3.74;92.50
71206;SHT31;58935;54.498;18.544;2023-04-01T00:37:37;3.72;92.56
71206;SHT31;58935;54.498;18.544;2023-04-01T00:40:06;3.70;92.60
71206;SHT31;58935;54.498;18.544;2023-04-01T00:42:32;3.70;92.62
71206;SHT31;58935;54.498;18.544;2023-04-01T00:44:58;3.71;92.69
71206;SHT31;58935;54.498;18.544;2023-04-01T00:47:43;3.76;92.69
71206;SHT31;58935;54.498;18.544;2023-04-01T00:50:09;3.78;92.62
71206;SHT31;58935;54.498;18.544;2023-04-01T00:52:35;3.81;92.60
71206;SHT31;58935;54.498;18.544;2023-04-01T00:55:01;3.83;92.60
71206;SHT31;58935;54.498;18.544;2023-04-01T00:57:32;3.83;92.55
71206;SHT31;58935;54.498;18.544;2023-04-01T01:00:03;3.82;92.51
71206;SHT31;58935;54.498;18.544;2023-04-01T01:02:32;3.81;92.48
71206;SHT31;58935;54.498;18.544;2023-04-01T01:04:59;3.84;92.48
71206;SHT31;58935;54.498;18.544;2023-04-01T01:10:02;3.89;92.42
71206;SHT31;58935;54.498;18.544;2023-04-01T01:15:07;3.87;92.38
71206;SHT31;58935;54.498;18.544;2023-04-01T01:27:34;3.77;92.13
71206;SHT31;58935;54.498;18.544;2023-04-01T01:37:35;3.64;92.46
71206;SHT31;58935;54.498;18.544;2023-04-01T01:40:04;3.65;92.51
71206;SHT31;58935;54.498;18.544;2023-04-01T01:42:33;3.66;92.59
71206;SHT31;58935;54.498;18.544;2023-04-01T01:45:02;3.68;92.69
71206;SHT31;58935;54.498;18.544;2023-04-01T01:47:30;3.69;92.56
71206;SHT31;58935;54.498;18.544;2023-04-01T01:49:58;3.69;92.58
71206;SHT31;58935;54.498;18.544;2023-04-01T01:52:26;3.69;92.55
71206;SHT31;58935;54.498;18.544;2023-04-01T01:54:55;3.71;92.59
71206;SHT31;58935;54.498;18.544;2023-04-01T01:57:25;3.72;92.62
71206;SHT31;58935;54.498;18.544;2023-04-01T01:59:55;3.75;92.71
71206;SHT31;58935;54.498;18.544;2023-04-01T02:02:25;3.78;92.69
71206;SHT31;58935;54.498;18.544;2023-04-01T02:04:52;3.82;92.71
71206;SHT31;58935;54.498;18.544;2023-04-01T02:07:19;3.87;92.72
71206;SHT31;58935;54.498;18.544;2023-04-01T02:09:49;3.92;92.70
71206;SHT31;58935;54.498;18.544;2023-04-01T02:12:15;3.94;92.70
71206;SHT31;58935;54.498;18.544;2023-04-01T02:14:45;3.97;92.64
71206;SHT31;58935;54.498;18.544;2023-04-01T02:17:16;4.01;92.63
71206;SHT31;58935;54.498;18.544;2023-04-01T02:22:16;4.04;92.62
71206;SHT31;58935;54.498;18.544;2023-04-01T02:24:45;4.06;92.70
71206;SHT31;58935;54.498;18.544;2023-04-01T02:27:11;4.08;92.65
71206;SHT31;58935;54.498;18.544;2023-04-01T02:29:38;4.06;92.63
71206;SHT31;58935;54.498;18.544;2023-04-01T02:32:03;4.07;92.61
71206;SHT31;58935;54.498;18.544;2023-04-01T02:34:30;4.05;92.61
71206;SHT31;58935;54.498;18.544;2023-04-01T02:36:56;4.03;92.88
71206;SHT31;58935;54.498;18.544;2023-04-01T02:39:22;4.01;92.99
71206;SHT31;58935;54.498;18.544;2023-04-01T02:41:48;4.02;92.82
71206;SHT31;58935;54.498;18.544;2023-04-01T02:44:14;4.05;92.79
71206;SHT31;58935;54.498;18.544;2023-04-01T02:46:40;4.08;92.78
71206;SHT31;58935;54.498;18.544;2023-04-01T02:49:06;4.09;92.69
71206;SHT31;58935;54.498;18.544;2023-04-01T02:51:33;4.08;92.60
71206;SHT31;58935;54.498;18.544;2023-04-01T02:53:59;4.08;92.71
71206;SHT31;58935;54.498;18.544;2023-04-01T02:56:25;4.07;92.80
71206;SHT31;58935;54.498;18.544;2023-04-01T02:58:51;4.06;92.70
71206;SHT31;58935;54.498;18.544;2023-04-01T03:01:17;4.07;92.83
71206;SHT31;58935;54.498;18.544;2023-04-01T03:03:42;4.07;92.92
71206;SHT31;58935;54.498;18.544;2023-04-01T03:06:09;4.08;92.85
71206;SHT31;58935;54.498;18.544;2023-04-01T03:08:36;4.08;92.90
71206;SHT31;58935;54.498;18.544;2023-04-01T03:11:01;4.04;92.99
71206;SHT31;58935;54.498;18.544;2023-04-01T03:13:27;4.01;93.03
71206;SHT31;58935;54.498;18.544;2023-04-01T03:15:53;4.00;93.11
71206;SHT31;58935;54.498;18.544;2023-04-01T03:18:19;3.98;93.34
71206;SHT31;58935;54.498;18.544;2023-04-01T03:20:45;3.98;93.40
71206;SHT31;58935;54.498;18.544;2023-04-01T03:23:10;3.98;93.49
71206;SHT31;58935;54.498;18.544;2023-04-01T03:25:36;3.99;93.37
71206;SHT31;58935;54.498;18.544;2023-04-01T03:28:02;4.03;93.38
71206;SHT31;58935;54.498;18.544;2023-04-01T03:30:27;4.04;93.22
71206;SHT31;58935;54.498;18.544;2023-04-01T03:32:55;4.06;93.21
71206;SHT31;58935;54.498;18.544;2023-04-01T03:35:20;4.08;93.12
71206;SHT31;58935;54.498;18.544;2023-04-01T03:37:46;4.09;93.01
71206;SHT31;58935;54.498;18.544;2023-04-01T03:40:11;4.10;93.00
71206;SHT31;58935;54.498;18.544;2023-04-01T03:42:37;4.12;93.00
71206;SHT31;58935;54.498;18.544;2023-04-01T03:45:03;4.14;93.01
71206;SHT31;58935;54.498;18.544;2023-04-01T03:47:30;4.15;93.09
71206;SHT31;58935;54.498;18.544;2023-04-01T03:49:55;4.17;93.04
71206;SHT31;58935;54.498;18.544;2023-04-01T03:52:21;4.18;92.92
71206;SHT31;58935;54.498;18.544;2023-04-01T03:54:47;4.18;93.04
71206;SHT31;58935;54.498;18.544;2023-04-01T03:57:12;4.20;93.06
71206;SHT31;58935;54.498;18.544;2023-04-01T03:59:38;4.22;93.00
71206;SHT31;58935;54.498;18.544;2023-04-01T04:02:03;4.23;93.03
71206;SHT31;58935;54.498;18.544;2023-04-01T04:04:30;4.24;93.19
71206;SHT31;58935;54.498;18.544;2023-04-01T04:06:56;4.24;93.19
71206;SHT31;58935;54.498;18.544;2023-04-01T04:09:22;4.24;93.20
71206;SHT31;58935;54.498;18.544;2023-04-01T04:11:48;4.24;93.21
71206;SHT31;58935;54.498;18.544;2023-04-01T04:14:14;4.27;93.30
71206;SHT31;58935;54.498;18.544;2023-04-01T04:16:39;4.29;93.28
71206;SHT31;58935;54.498;18.544;2023-04-01T04:19:04;4.30;93.36
71206;SHT31;58935;54.498;18.544;2023-04-01T04:21:30;4.34;93.30
71206;SHT31;58935;54.498;18.544;2023-04-01T04:23:56;4.35;93.38
71206;SHT31;58935;54.498;18.544;2023-04-01T04:26:21;4.36;93.57
71206;SHT31;58935;54.498;18.544;2023-04-01T04:28:47;4.38;93.60
71206;SHT31;58935;54.498;18.544;2023-04-01T04:31:17;4.39;93.74
71206;SHT31;58935;54.498;18.544;2023-04-01T04:33:45;4.39;93.73
71206;SHT31;58935;54.498;18.544;2023-04-01T04:36:10;4.40;93.67
71206;SHT31;58935;54.498;18.544;2023-04-01T04:38:35;4.39;93.79
71206;SHT31;58935;54.498;18.544;2023-04-01T04:41:01;4.38;93.97
71206;SHT31;58935;54.498;18.544;2023-04-01T04:43:26;4.36;94.13
71206;SHT31;58935;54.498;18.544;2023-04-01T04:45:51;4.36;94.22
71206;SHT31;58935;54.498;18.544;2023-04-01T04:48:17;4.35;94.18
71206;SHT31;58935;54.498;18.544;2023-04-01T04:50:46;4.33;94.18
71206;SHT31;58935;54.498;18.544;2023-04-01T04:53:13;4.34;94.19
71206;SHT31;58935;54.498;18.544;2023-04-01T04:58:08;4.30;94.20
71206;SHT31;58935;54.498;18.544;2023-04-01T05:00:34;4.29;94.15
71206;SHT31;58935;54.498;18.544;2023-04-01T05:03:00;4.29;94.13
71206;SHT31;58935;54.498;18.544;2023-04-01T05:05:25;4.28;94.24
71206;SHT31;58935;54.498;18.544;2023-04-01T05:07:51;4.26;94.12
71206;SHT31;58935;54.498;18.544;2023-04-01T05:10:16;4.24;94.10
71206;SHT31;58935;54.498;18.544;2023-04-01T05:12:41;4.23;94.18
71206;SHT31;58935;54.498;18.544;2023-04-01T05:15:07;4.23;94.35
71206;SHT31;58935;54.498;18.544;2023-04-01T05:17:33;4.22;94.30
71206;SHT31;58935;54.498;18.544;2023-04-01T05:19:59;4.20;94.38
71206;SHT31;58935;54.498;18.544;2023-04-01T05:22:24;4.19;94.42
71206;SHT31;58935;54.498;18.544;2023-04-01T05:24:50;4.20;94.49
71206;SHT31;58935;54.498;18.544;2023-04-01T05:27:16;4.18;94.45
71206;SHT31;58935;54.498;18.544;2023-04-01T05:29:41;4.15;94.50
71206;SHT31;58935;54.498;18.544;2023-04-01T05:32:07;4.13;94.47
71206;SHT31;58935;54.498;18.544;2023-04-01T05:34:32;4.11;94.48
71206;SHT31;58935;54.498;18.544;2023-04-01T05:36:58;4.12;94.52
71206;SHT31;58935;54.498;18.544;2023-04-01T05:39:23;4.13;94.51
71206;SHT31;58935;54.498;18.544;2023-04-01T05:41:48;4.14;94.57
71206;SHT31;58935;54.498;18.544;2023-04-01T05:44:14;4.13;94.50
71206;SHT31;58935;54.498;18.544;2023-04-01T05:46:40;4.12;94.43
71206;SHT31;58935;54.498;18.544;2023-04-01T05:49:06;4.11;94.46
71206;SHT31;58935;54.498;18.544;2023-04-01T05:51:31;4.08;94.57
71206;SHT31;58935;54.498;18.544;2023-04-01T05:53:56;4.10;94.51
71206;SHT31;58935;54.498;18.544;2023-04-01T05:56:22;4.08;94.56
71206;SHT31;58935;54.498;18.544;2023-04-01T05:58:50;4.06;94.57
71206;SHT31;58935;54.498;18.544;2023-04-01T06:01:17;4.07;94.66
71206;SHT31;58935;54.498;18.544;2023-04-01T06:03:43;4.08;94.60
71206;SHT31;58935;54.498;18.544;2023-04-01T06:08:40;4.07;94.64
71206;SHT31;58935;54.498;18.544;2023-04-01T06:13:45;4.04;94.44
71206;SHT31;58935;54.498;18.544;2023-04-01T06:18:59;4.06;94.51
71206;SHT31;58935;54.498;18.544;2023-04-01T06:21:41;4.07;94.48
71206;SHT31;58935;54.498;18.544;2023-04-01T06:27:04;4.08;94.40
71206;SHT31;58935;54.498;18.544;2023-04-01T06:35:02;3.98;94.21
71206;SHT31;58935;54.498;18.544;2023-04-01T06:42:45;3.91;94.19
71206;SHT31;58935;54.498;18.544;2023-04-01T06:45:24;3.88;94.13
71206;SHT31;58935;54.498;18.544;2023-04-01T06:50:24;3.86;94.21
71206;SHT31;58935;54.498;18.544;2023-04-01T06:58:03;3.85;94.22
71206;SHT31;58935;54.498;18.544;2023-04-01T07:00:32;3.84;94.23
71206;SHT31;58935;54.498;18.544;2023-04-01T07:05:30;3.78;94.17
71206;SHT31;58935;54.498;18.544;2023-04-01T07:07:57;3.77;94.21
71206;SHT31;58935;54.498;18.544;2023-04-01T07:12:57;3.79;94.20
71206;SHT31;58935;54.498;18.544;2023-04-01T07:15:28;3.81;94.16
71206;SHT31;58935;54.498;18.544;2023-04-01T07:18:01;3.79;94.00
71206;SHT31;58935;54.498;18.544;2023-04-01T07:20:31;3.80;93.97
71206;SHT31;58935;54.498;18.544;2023-04-01T07:22:58;3.79;93.87
71206;SHT31;58935;54.498;18.544;2023-04-01T07:25:27;3.80;93.84
71206;SHT31;58935;54.498;18.544;2023-04-01T07:27:58;3.80;93.78
71206;SHT31;58935;54.498;18.544;2023-04-01T07:30:26;3.77;93.61
71206;SHT31;58935;54.498;18.544;2023-04-01T07:35:34;3.78;93.55
71206;SHT31;58935;54.498;18.544;2023-04-01T07:40:37;3.77;93.51
71206;SHT31;58935;54.498;18.544;2023-04-01T07:48:24;3.77;93.47
71206;SHT31;58935;54.498;18.544;2023-04-01T07:55:59;3.78;93.48
71206;SHT31;58935;54.498;18.544;2023-04-01T08:01:05;3.74;93.61
71206;SHT31;58935;54.498;18.544;2023-04-01T08:08:43;3.72;93.70
71206;SHT31;58935;54.498;18.544;2023-04-01T08:11:15;3.71;93.69
71206;SHT31;58935;54.498;18.544;2023-04-01T08:13:53;3.71;93.62
71206;SHT31;58935;54.498;18.544;2023-04-01T08:21:32;3.69;93.54
71206;SHT31;58935;54.498;18.544;2023-04-01T08:26:38;3.69;93.40
71206;SHT31;58935;54.498;18.544;2023-04-01T08:29:11;3.69;93.39
71206;SHT31;58935;54.498;18.544;2023-04-01T08:31:45;3.69;93.40
71206;SHT31;58935;54.498;18.544;2023-04-01T08:34:17;3.72;93.39
71206;SHT31;58935;54.498;18.544;2023-04-01T08:36:46;3.74;93.40
71206;SHT31;58935;54.498;18.544;2023-04-01T08:52:27;3.78;93.09
71206;SHT31;58935;54.498;18.544;2023-04-01T09:02:38;3.83;92.80
71206;SHT31;58935;54.498;18.544;2023-04-01T09:12:44;3.92;92.49
71206;SHT31;58935;54.498;18.544;2023-04-01T10:03:18;3.72;92.32
71206;SHT31;58935;54.498;18.544;2023-04-01T10:13:48;3.81;91.64
71206;SHT31;58935;54.498;18.544;2023-04-01T10:16:25;3.80;91.43
71206;SHT31;58935;54.498;18.544;2023-04-01T10:34:15;3.73;91.14
71206;SHT31;58935;54.498;18.544;2023-04-01T10:37:03;3.70;91.16
71206;SHT31;58935;54.498;18.544;2023-04-01T10:42:15;3.67;90.88
71206;SHT31;58935;54.498;18.544;2023-04-01T10:47:34;3.67;90.75
71206;SHT31;58935;54.498;18.544;2023-04-01T10:52:56;3.63;90.29
71206;SHT31;58935;54.498;18.544;2023-04-01T11:02:57;3.61;90.23
71206;SHT31;58935;54.498;18.544;2023-04-01T11:10:49;3.55;89.82
71206;SHT31;58935;54.498;18.544;2023-04-01T11:13:26;3.57;89.97
71206;SHT31;58935;54.498;18.544;2023-04-01T11:33:36;3.71;89.29
71206;SHT31;58935;54.498;18.544;2023-04-01T11:38:49;3.72;89.22
71206;SHT31;58935;54.498;18.544;2023-04-01T11:41:22;3.75;89.13
71206;SHT31;58935;54.498;18.544;2023-04-01T11:48:58;3.81;88.74
71206;SHT31;58935;54.498;18.544;2023-04-01T12:14:33;3.58;89.73
71206;SHT31;58935;54.498;18.544;2023-04-01T12:17:14;3.55;89.64
71206;SHT31;58935;54.498;18.544;2023-04-01T12:19:51;3.52;89.84
71206;SHT31;58935;54.498;18.544;2023-04-01T12:55:46;3.24;89.71
71206;SHT31;58935;54.498;18.544;2023-04-01T13:00:54;3.22;90.59
71206;SHT31;58935;54.498;18.544;2023-04-01T13:08:43;3.20;90.87
71206;SHT31;58935;54.498;18.544;2023-04-01T13:11:20;3.18;90.98
71206;SHT31;58935;54.498;18.544;2023-04-01T13:13:54;3.18;91.09
71206;SHT31;58935;54.498;18.544;2023-04-01T13:16:28;3.20;91.05
71206;SHT31;58935;54.498;18.544;2023-04-01T13:26:43;3.18;90.37
71206;SHT31;58935;54.498;18.544;2023-04-01T13:29:15;3.17;90.44
71206;SHT31;58935;54.498;18.544;2023-04-01T13:31:50;3.16;90.75
71206;SHT31;58935;54.498;18.544;2023-04-01T13:39:33;3.20;90.69
71206;SHT31;58935;54.498;18.544;2023-04-01T13:42:13;3.23;90.59
71206;SHT31;58935;54.498;18.544;2023-04-01T13:44:49;3.23;90.28
71206;SHT31;58935;54.498;18.544;2023-04-01T14:21:19;3.27;89.41
71206;SHT31;58935;54.498;18.544;2023-04-01T14:26:07;3.30;89.72
71206;SHT31;58935;54.498;18.544;2023-04-01T14:33:49;3.30;89.10
71206;SHT31;58935;54.498;18.544;2023-04-01T14:36:28;3.29;88.86
71206;SHT31;58935;54.498;18.544;2023-04-01T14:39:00;3.30;88.83
71206;SHT31;58935;54.498;18.544;2023-04-01T14:44:11;3.33;88.90
71206;SHT31;58935;54.498;18.544;2023-04-01T14:46:50;3.32;88.64
71206;SHT31;58935;54.498;18.544;2023-04-01T14:49:41;3.31;88.47
71206;SHT31;58935;54.498;18.544;2023-04-01T14:54:42;3.30;88.23
71206;SHT31;58935;54.498;18.544;2023-04-01T14:57:11;3.28;87.84
71206;SHT31;58935;54.498;18.544;2023-04-01T14:59:41;3.30;87.89
71206;SHT31;58935;54.498;18.544;2023-04-01T15:04:56;3.30;87.77
71206;SHT31;58935;54.498;18.544;2023-04-01T15:07:48;3.31;87.78
71206;SHT31;58935;54.498;18.544;2023-04-01T15:10:27;3.31;87.56
71206;SHT31;58935;54.498;18.544;2023-04-01T15:13:13;3.28;87.32
71206;SHT31;58935;54.498;18.544;2023-04-01T15:18:23;3.27;86.91
71206;SHT31;58935;54.498;18.544;2023-04-01T15:26:12;3.28;87.43
71206;SHT31;58935;54.498;18.544;2023-04-01T15:28:51;3.28;87.60
71206;SHT31;58935;54.498;18.544;2023-04-01T15:37:03;3.28;87.34
71206;SHT31;58935;54.498;18.544;2023-04-01T15:52:24;3.22;86.73
71206;SHT31;58935;54.498;18.544;2023-04-01T15:55:09;3.23;86.82
71206;SHT31;58935;54.498;18.544;2023-04-01T15:57:52;3.22;86.93
71206;SHT31;58935;54.498;18.544;2023-04-01T16:00:30;3.23;86.89
71206;SHT31;58935;54.498;18.544;2023-04-01T16:03:09;3.23;86.81
71206;SHT31;58935;54.498;18.544;2023-04-01T16:05:55;3.24;86.87
71206;SHT31;58935;54.498;18.544;2023-04-01T16:14:05;3.22;86.39
71206;SHT31;58935;54.498;18.544;2023-04-01T16:26:59;3.16;86.36
71206;SHT31;58935;54.498;18.544;2023-04-01T16:29:36;3.15;86.56
71206;SHT31;58935;54.498;18.544;2023-04-01T16:37:17;3.12;86.05
71206;SHT31;58935;54.498;18.544;2023-04-01T16:39:49;3.12;86.14
71206;SHT31;58935;54.498;18.544;2023-04-01T16:42:24;3.12;86.23
71206;SHT31;58935;54.498;18.544;2023-04-01T16:47:45;3.11;85.69
71206;SHT31;58935;54.498;18.544;2023-04-01T16:53:47;3.12;85.66
71206;SHT31;58935;54.498;18.544;2023-04-01T16:55:47;3.12;85.67
71206;SHT31;58935;54.498;18.544;2023-04-01T16:58:21;3.11;85.03
71206;SHT31;58935;54.498;18.544;2023-04-01T17:11:19;3.08;84.85
71206;SHT31;58935;54.498;18.544;2023-04-01T17:13:55;3.09;84.60
71206;SHT31;58935;54.498;18.544;2023-04-01T17:24:09;3.08;84.61
71206;SHT31;58935;54.498;18.544;2023-04-01T17:26:56;3.08;84.68
71206;SHT31;58935;54.498;18.544;2023-04-01T17:29:32;3.09;84.54
71206;SHT31;58935;54.498;18.544;2023-04-01T17:34:46;3.10;84.73
71206;SHT31;58935;54.498;18.544;2023-04-01T17:45:45;3.09;84.15
71206;SHT31;58935;54.498;18.544;2023-04-01T17:50:53;3.10;84.46
71206;SHT31;58935;54.498;18.544;2023-04-01T17:56:06;3.12;84.53
71206;SHT31;58935;54.498;18.544;2023-04-01T17:58:41;3.12;84.31
71206;SHT31;58935;54.498;18.544;2023-04-01T18:01:35;3.12;84.11
71206;SHT31;58935;54.498;18.544;2023-04-01T18:04:08;3.12;84.05
71206;SHT31;58935;54.498;18.544;2023-04-01T18:09:19;3.14;84.23
71206;SHT31;58935;54.498;18.544;2023-04-01T18:21:36;3.20;84.32
71206;SHT31;58935;54.498;18.544;2023-04-01T18:22:54;3.20;84.05
71206;SHT31;58935;54.498;18.544;2023-04-01T18:25:27;3.20;83.73
71206;SHT31;58935;54.498;18.544;2023-04-01T18:30:41;3.21;84.23
71206;SHT31;58935;54.498;18.544;2023-04-01T18:38:38;3.24;83.90
71206;SHT31;58935;54.498;18.544;2023-04-01T18:41:14;3.24;83.74
71206;SHT31;58935;54.498;18.544;2023-04-01T18:53:57;3.25;83.58
71206;SHT31;58935;54.498;18.544;2023-04-01T18:56:36;3.25;83.69
71206;SHT31;58935;54.498;18.544;2023-04-01T18:59:09;3.27;83.90
71206;SHT31;58935;54.498;18.544;2023-04-01T19:01:47;3.27;83.95
71206;SHT31;58935;54.498;18.544;2023-04-01T19:04:20;3.26;83.68
71206;SHT31;58935;54.498;18.544;2023-04-01T19:06:57;3.26;83.56
71206;SHT31;58935;54.498;18.544;2023-04-01T19:09:27;3.25;83.59
71206;SHT31;58935;54.498;18.544;2023-04-01T19:14:34;3.24;83.87
71206;SHT31;58935;54.498;18.544;2023-04-01T19:17:10;3.25;83.97
71206;SHT31;58935;54.498;18.544;2023-04-01T19:19:51;3.25;83.52
71206;SHT31;58935;54.498;18.544;2023-04-01T19:22:32;3.25;83.87
71206;SHT31;58935;54.498;18.544;2023-04-01T19:27:42;3.27;84.44
71206;SHT31;58935;54.498;18.544;2023-04-01T19:30:18;3.26;83.87
71206;SHT31;58935;54.498;18.544;2023-04-01T19:35:32;3.23;83.47
71206;SHT31;58935;54.498;18.544;2023-04-01T19:40:50;3.22;83.82
71206;SHT31;58935;54.498;18.544;2023-04-01T19:48:36;3.20;84.20
71206;SHT31;58935;54.498;18.544;2023-04-01T19:51:14;3.20;84.07
71206;SHT31;58935;54.498;18.544;2023-04-01T19:56:22;3.21;84.30
71206;SHT31;58935;54.498;18.544;2023-04-01T19:58:54;3.21;84.71
71206;SHT31;58935;54.498;18.544;2023-04-01T20:01:41;3.22;84.81
71206;SHT31;58935;54.498;18.544;2023-04-01T20:04:17;3.23;84.92
71206;SHT31;58935;54.498;18.544;2023-04-01T20:15:03;3.09;83.78
71206;SHT31;58935;54.498;18.544;2023-04-01T20:17:44;3.05;84.39
71206;SHT31;58935;54.498;18.544;2023-04-01T20:22:56;2.98;85.20
71206;SHT31;58935;54.498;18.544;2023-04-01T20:28:09;2.90;85.34
71206;SHT31;58935;54.498;18.544;2023-04-01T20:38:06;2.74;85.84
71206;SHT31;58935;54.498;18.544;2023-04-01T20:40:50;2.68;85.90
71206;SHT31;58935;54.498;18.544;2023-04-01T20:45:55;2.59;86.55
71206;SHT31;58935;54.498;18.544;2023-04-01T20:48:42;2.56;86.68
71206;SHT31;58935;54.498;18.544;2023-04-01T20:51:14;2.48;86.91
71206;SHT31;58935;54.498;18.544;2023-04-01T20:53:50;2.45;87.20
71206;SHT31;58935;54.498;18.544;2023-04-01T20:58:53;2.37;87.31
71206;SHT31;58935;54.498;18.544;2023-04-01T21:06:48;2.33;87.76
71206;SHT31;58935;54.498;18.544;2023-04-01T21:24:54;2.21;88.82
71206;SHT31;58935;54.498;18.544;2023-04-01T21:53:49;2.29;89.43
71206;SHT31;58935;54.498;18.544;2023-04-01T22:06:59;2.48;88.68
71206;SHT31;58935;54.498;18.544;2023-04-01T22:09:39;2.47;88.76
71206;SHT31;58935;54.498;18.544;2023-04-01T22:12:17;2.46;88.78
71206;SHT31;58935;54.498;18.544;2023-04-01T22:14:57;2.45;88.72
71206;SHT31;58935;54.498;18.544;2023-04-01T22:20:40;2.37;88.05
71206;SHT31;58935;54.498;18.544;2023-04-01T22:28:04;2.31;87.56
71206;SHT31;58935;54.498;18.544;2023-04-01T22:30:36;2.29;87.58
71206;SHT31;58935;54.498;18.544;2023-04-01T22:38:30;2.22;88.32
71206;SHT31;58935;54.498;18.544;2023-04-01T22:41:05;2.17;88.72
71206;SHT31;58935;54.498;18.544;2023-04-01T22:43:46;2.09;90.37
71206;SHT31;58935;54.498;18.544;2023-04-01T22:48:45;1.93;90.94
71206;SHT31;58935;54.498;18.544;2023-04-01T22:51:18;1.81;91.19
71206;SHT31;58935;54.498;18.544;2023-04-01T22:53:57;1.70;91.22
71206;SHT31;58935;54.498;18.544;2023-04-01T22:59:08;1.55;92.52
71206;SHT31;58935;54.498;18.544;2023-04-01T23:01:43;1.52;92.82
71206;SHT31;58935;54.498;18.544;2023-04-01T23:04:16;1.50;93.06
71206;SHT31;58935;54.498;18.544;2023-04-01T23:06:48;1.50;93.20
71206;SHT31;58935;54.498;18.544;2023-04-01T23:09:19;1.51;93.28
71206;SHT31;58935;54.498;18.544;2023-04-01T23:11:50;1.52;93.17
71206;SHT31;58935;54.498;18.544;2023-04-01T23:19:29;1.56;92.85
71206;SHT31;58935;54.498;18.544;2023-04-01T23:22:07;1.64;92.41
71206;SHT31;58935;54.498;18.544;2023-04-01T23:24:38;1.76;92.06
71206;SHT31;58935;54.498;18.544;2023-04-01T23:27:12;1.96;91.73
71206;SHT31;58935;54.498;18.544;2023-04-01T23:29:44;2.14;90.71
71206;SHT31;58935;54.498;18.544;2023-04-01T23:32:25;2.34;89.35
71206;SHT31;58935;54.498;18.544;2023-04-01T23:34:54;2.49;88.20
71206;SHT31;58935;54.498;18.544;2023-04-01T23:37:22;2.60;85.95
71206;SHT31;58935;54.498;18.544;2023-04-01T23:39:49;2.69;85.07
71206;SHT31;58935;54.498;18.544;2023-04-01T23:42:19;2.72;85.15
71206;SHT31;58935;54.498;18.544;2023-04-01T23:44:49;2.69;84.82
71206;SHT31;58935;54.498;18.544;2023-04-01T23:47:17;2.61;84.34
71206;SHT31;58935;54.498;18.544;2023-04-01T23:49:46;2.58;84.49
71206;SHT31;58935;54.498;18.544;2023-04-01T23:52:20;2.57;83.96
71206;SHT31;58935;54.498;18.544;2023-04-01T23:54:52;2.58;83.96
71206;SHT31;58935;54.498;18.544;2023-04-01T23:57:24;2.58;82.47
